sensor_id;sensor_type;location;lat;lon;timestamp;temperature;humidity
6824;DHT22;58633;49.470;11.004;2024-02-15T00:00:53;11.00;99.90
6824;DHT22;58633;49.470;11.004;2024-02-15T00:03:19;11.00;99.90
6824;DHT22;58633;49.470;11.004;2024-02-15T00:05:45;10.90;99.90
6824;DHT22;58633;49.470;11.004;2024-02-15T00:08:11;10.80;99.90
6824;DHT22;58633;49.470;11.004;2024-02-15T00:10:37;10.90;99.90
6824;DHT22;58633;49.470;11.004;2024-02-15T00:13:03;10.90;99.90
6824;DHT22;58633;49.470;11.004;2024-02-15T00:15:28;10.90;99.90
6824;DHT22;58633;49.470;11.004;2024-02-15T00:17:54;10.90;99.90
6824;DHT22;58633;49.470;11.004;2024-02-15T00:20:19;10.80;99.90
6824;DHT22;58633;49.470;11.004;2024-02-15T00:22:45;10.80;99.90
6824;DHT22;58633;49.470;11.004;2024-02-15T00:25:11;10.90;99.90
6824;DHT22;58633;49.470;11.004;2024-02-15T00:27:36;10.70;99.90
6824;DHT22;58633;49.470;11.004;2024-02-15T00:30:03;10.60;99.90
6824;DHT22;58633;49.470;11.004;2024-02-15T00:32:30;10.80;99.90
6824;DHT22;58633;49.470;11.004;2024-02-15T00:34:56;10.80;99.90
6824;DHT22;58633;49.470;11.004;2024-02-15T00:37:22;10.80;99.90
6824;DHT22;58633;49.470;11.004;2024-02-15T00:39:47;10.90;99.90
6824;DHT22;58633;49.470;11.004;2024-02-15T00:42:13;11.00;99.90
6824;DHT22;58633;49.470;11.004;2024-02-15T00:44:39;11.10;99.90
6824;DHT22;58633;49.470;11.004;2024-02-15T00:47:04;11.30;99.90
6824;DHT22;58633;49.470;11.004;2024-02-15T00:49:30;11.00;99.90
6824;DHT22;58633;49.470;11.004;2024-02-15T00:51:55;11.10;99.90
6824;DHT22;58633;49.470;11.004;2024-02-15T00:54:21;11.00;99.90
6824;DHT22;58633;49.470;11.004;2024-02-15T00:56:48;11.00;99.90
6824;DHT22;58633;49.470;11.004;2024-02-15T00:59:13;10.90;99.90
6824;DHT22;58633;49.470;11.004;2024-02-15T01:01:39;10.90;99.90
6824;DHT22;58633;49.470;11.004;2024-02-15T01:04:06;10.90;99.90
6824;DHT22;58633;49.470;11.004;2024-02-15T01:06:31;10.90;99.90
6824;DHT22;58633;49.470;11.004;2024-02-15T01:08:58;10.80;99.90
6824;DHT22;58633;49.470;11.004;2024-02-15T01:11:26;10.70;99.90
6824;DHT22;58633;49.470;11.004;2024-02-15T01:13:53;11.80;99.90
6824;DHT22;58633;49.470;11.004;2024-02-15T01:16:19;10.60;99.90
6824;DHT22;58633;49.470;11.004;2024-02-15T01:18:47;10.60;99.90
6824;DHT22;58633;49.470;11.004;2024-02-15T01:21:12;10.70;99.90
6824;DHT22;58633;49.470;11.004;2024-02-15T01:23:38;11.00;99.90
6824;DHT22;58633;49.470;11.004;2024-02-15T01:28:30;10.80;99.90
6824;DHT22;58633;49.470;11.004;2024-02-15T01:30:56;10.70;99.90
6824;DHT22;58633;49.470;11.004;2024-02-15T01:33:21;10.70;99.90
6824;DHT22;58633;49.470;11.004;2024-02-15T01:35:47;10.80;99.90
6824;DHT22;58633;49.470;11.004;2024-02-15T01:38:13;10.80;99.90
6824;DHT22;58633;49.470;11.004;2024-02-15T01:43:05;10.90;99.90
6824;DHT22;58633;49.470;11.004;2024-02-15T01:45:31;10.80;99.90
6824;DHT22;58633;49.470;11.004;2024-02-15T01:47:57;10.70;99.90
6824;DHT22;58633;49.470;11.004;2024-02-15T01:50:23;10.80;99.90
6824;DHT22;58633;49.470;11.004;2024-02-15T01:52:52;12.10;99.90
6824;DHT22;58633;49.470;11.004;2024-02-15T01:55:19;10.70;99.90
6824;DHT22;58633;49.470;11.004;2024-02-15T01:57:45;10.80;99.90
6824;DHT22;58633;49.470;11.004;2024-02-15T02:00:11;10.70;99.90
6824;DHT22;58633;49.470;11.004;2024-02-15T02:02:39;10.70;99.90
6824;DHT22;58633;49.470;11.004;2024-02-15T02:05:06;10.80;99.90
6824;DHT22;58633;49.470;11.004;2024-02-15T02:07:32;13.10;99.90
6824;DHT22;58633;49.470;11.004;2024-02-15T02:09:58;10.60;99.90
6824;DHT22;58633;49.470;11.004;2024-02-15T02:12:23;10.70;99.90
6824;DHT22;58633;49.470;11.004;2024-02-15T02:14:53;12.10;99.90
6824;DHT22;58633;49.470;11.004;2024-02-15T02:17:19;10.70;99.90
6824;DHT22;58633;49.470;11.004;2024-02-15T02:19:45;10.60;99.90
6824;DHT22;58633;49.470;11.004;2024-02-15T02:22:11;10.60;99.90
6824;DHT22;58633;49.470;11.004;2024-02-15T02:24:57;10.80;99.90
6824;DHT22;58633;49.470;11.004;2024-02-15T02:27:24;10.70;99.90
6824;DHT22;58633;49.470;11.004;2024-02-15T02:29:51;10.70;99.90
6824;DHT22;58633;49.470;11.004;2024-02-15T02:32:17;10.70;99.90
6824;DHT22;58633;49.470;11.004;2024-02-15T02:34:42;10.70;99.90
6824;DHT22;58633;49.470;11.004;2024-02-15T02:37:09;10.90;99.90
6824;DHT22;58633;49.470;11.004;2024-02-15T02:39:35;10.70;99.90
6824;DHT22;58633;49.470;11.004;2024-02-15T02:42:01;12.50;99.90
6824;DHT22;58633;49.470;11.004;2024-02-15T02:44:27;10.70;99.90
6824;DHT22;58633;49.470;11.004;2024-02-15T02:46:52;10.30;99.90
6824;DHT22;58633;49.470;11.004;2024-02-15T02:49:18;10.50;99.90
6824;DHT22;58633;49.470;11.004;2024-02-15T02:51:43;10.70;99.90
6824;DHT22;58633;49.470;11.004;2024-02-15T02:54:10;10.80;99.90
6824;DHT22;58633;49.470;11.004;2024-02-15T02:56:36;10.70;99.90
6824;DHT22;58633;49.470;11.004;2024-02-15T02:59:01;11.10;99.90
6824;DHT22;58633;49.470;11.004;2024-02-15T03:01:28;10.70;99.90
6824;DHT22;58633;49.470;11.004;2024-02-15T03:03:54;13.70;99.90
6824;DHT22;58633;49.470;11.004;2024-02-15T03:06:23;10.70;99.90
6824;DHT22;58633;49.470;11.004;2024-02-15T03:08:50;12.20;99.90
6824;DHT22;58633;49.470;11.004;2024-02-15T03:11:19;10.80;99.90
6824;DHT22;58633;49.470;11.004;2024-02-15T03:13:45;10.70;99.90
6824;DHT22;58633;49.470;11.004;2024-02-15T03:16:11;10.80;99.90
6824;DHT22;58633;49.470;11.004;2024-02-15T03:18:36;11.40;99.90
6824;DHT22;58633;49.470;11.004;2024-02-15T03:21:02;10.80;99.90
6824;DHT22;58633;49.470;11.004;2024-02-15T03:23:29;10.70;99.90
6824;DHT22;58633;49.470;11.004;2024-02-15T03:25:56;10.80;99.90
6824;DHT22;58633;49.470;11.004;2024-02-15T03:28:21;10.70;99.90
6824;DHT22;58633;49.470;11.004;2024-02-15T03:30:48;12.40;99.90
6824;DHT22;58633;49.470;11.004;2024-02-15T03:33:15;10.70;99.90
6824;DHT22;58633;49.470;11.004;2024-02-15T03:35:41;10.70;99.90
6824;DHT22;58633;49.470;11.004;2024-02-15T03:38:06;12.50;99.90
6824;DHT22;58633;49.470;11.004;2024-02-15T03:40:32;10.60;99.90
6824;DHT22;58633;49.470;11.004;2024-02-15T03:42:59;10.60;99.90
6824;DHT22;58633;49.470;11.004;2024-02-15T03:45:24;10.70;99.90
6824;DHT22;58633;49.470;11.004;2024-02-15T03:47:51;10.70;99.90
6824;DHT22;58633;49.470;11.004;2024-02-15T03:50:17;10.80;99.90
6824;DHT22;58633;49.470;11.004;2024-02-15T03:52:44;12.50;99.90
6824;DHT22;58633;49.470;11.004;2024-02-15T03:55:10;10.60;99.90
6824;DHT22;58633;49.470;11.004;2024-02-15T03:57:39;10.70;99.90
6824;DHT22;58633;49.470;11.004;2024-02-15T04:00:09;10.70;99.90
6824;DHT22;58633;49.470;11.004;2024-02-15T04:02:37;10.60;99.90
6824;DHT22;58633;49.470;11.004;2024-02-15T04:05:03;10.60;99.90
6824;DHT22;58633;49.470;11.004;2024-02-15T04:07:30;10.60;99.90
6824;DHT22;58633;49.470;11.004;2024-02-15T04:09:56;10.60;99.90
6824;DHT22;58633;49.470;11.004;2024-02-15T04:12:21;10.60;99.90
6824;DHT22;58633;49.470;11.004;2024-02-15T04:14:47;10.70;99.90
6824;DHT22;58633;49.470;11.004;2024-02-15T04:17:14;10.80;99.90
6824;DHT22;58633;49.470;11.004;2024-02-15T04:19:43;10.50;99.90
6824;DHT22;58633;49.470;11.004;2024-02-15T04:22:09;10.40;99.90
6824;DHT22;58633;49.470;11.004;2024-02-15T04:24:36;10.90;99.90
6824;DHT22;58633;49.470;11.004;2024-02-15T04:27:06;10.40;99.90
6824;DHT22;58633;49.470;11.004;2024-02-15T04:29:33;13.20;99.90
6824;DHT22;58633;49.470;11.004;2024-02-15T04:31:59;10.20;99.90
6824;DHT22;58633;49.470;11.004;2024-02-15T04:36:50;10.80;99.90
6824;DHT22;58633;49.470;11.004;2024-02-15T04:39:19;10.40;99.90
6824;DHT22;58633;49.470;11.004;2024-02-15T04:41:53;10.30;99.90
6824;DHT22;58633;49.470;11.004;2024-02-15T04:44:19;10.40;99.90
6824;DHT22;58633;49.470;11.004;2024-02-15T04:46:52;10.40;99.90
6824;DHT22;58633;49.470;11.004;2024-02-15T04:49:18;10.60;99.90
6824;DHT22;58633;49.470;11.004;2024-02-15T04:51:44;10.40;99.90
6824;DHT22;58633;49.470;11.004;2024-02-15T04:54:10;10.40;99.90
6824;DHT22;58633;49.470;11.004;2024-02-15T04:56:39;10.40;99.90
6824;DHT22;58633;49.470;11.004;2024-02-15T04:59:05;10.30;99.90
6824;DHT22;58633;49.470;11.004;2024-02-15T05:01:34;10.40;99.90
6824;DHT22;58633;49.470;11.004;2024-02-15T05:04:01;10.40;99.90
6824;DHT22;58633;49.470;11.004;2024-02-15T05:06:32;10.30;99.90
6824;DHT22;58633;49.470;11.004;2024-02-15T05:08:58;10.10;99.90
6824;DHT22;58633;49.470;11.004;2024-02-15T05:11:25;10.20;99.90
6824;DHT22;58633;49.470;11.004;2024-02-15T05:13:51;10.20;99.90
6824;DHT22;58633;49.470;11.004;2024-02-15T05:16:17;10.20;99.90
6824;DHT22;58633;49.470;11.004;2024-02-15T05:18:43;10.20;99.90
6824;DHT22;58633;49.470;11.004;2024-02-15T05:21:09;10.10;99.90
6824;DHT22;58633;49.470;11.004;2024-02-15T05:23:38;10.20;99.90
6824;DHT22;58633;49.470;11.004;2024-02-15T05:26:09;10.10;99.90
6824;DHT22;58633;49.470;11.004;2024-02-15T05:28:34;10.60;99.90
6824;DHT22;58633;49.470;11.004;2024-02-15T05:31:19;10.20;99.90
6824;DHT22;58633;49.470;11.004;2024-02-15T05:33:54;10.00;99.90
6824;DHT22;58633;49.470;11.004;2024-02-15T05:36:21;10.20;99.90
6824;DHT22;58633;49.470;11.004;2024-02-15T05:38:50;10.20;99.90
6824;DHT22;58633;49.470;11.004;2024-02-15T05:41:16;10.20;99.90
6824;DHT22;58633;49.470;11.004;2024-02-15T05:43:42;10.00;99.90
6824;DHT22;58633;49.470;11.004;2024-02-15T05:46:09;10.10;99.90
6824;DHT22;58633;49.470;11.004;2024-02-15T05:48:35;10.20;99.90
6824;DHT22;58633;49.470;11.004;2024-02-15T05:51:08;10.30;99.90
6824;DHT22;58633;49.470;11.004;2024-02-15T05:53:34;10.20;99.90
6824;DHT22;58633;49.470;11.004;2024-02-15T05:56:07;10.10;99.90
6824;DHT22;58633;49.470;11.004;2024-02-15T05:58:33;10.30;99.90
6824;DHT22;58633;49.470;11.004;2024-02-15T06:01:00;10.40;99.90
6824;DHT22;58633;49.470;11.004;2024-02-15T06:03:31;10.20;99.90
6824;DHT22;58633;49.470;11.004;2024-02-15T06:05:58;10.20;99.90
6824;DHT22;58633;49.470;11.004;2024-02-15T06:08:28;10.20;99.90
6824;DHT22;58633;49.470;11.004;2024-02-15T06:10:56;10.20;99.90
6824;DHT22;58633;49.470;11.004;2024-02-15T06:13:22;10.20;99.90
6824;DHT22;58633;49.470;11.004;2024-02-15T06:15:51;13.10;99.90
6824;DHT22;58633;49.470;11.004;2024-02-15T06:18:24;10.30;99.90
6824;DHT22;58633;49.470;11.004;2024-02-15T06:20:51;10.30;99.90
6824;DHT22;58633;49.470;11.004;2024-02-15T06:23:17;10.20;99.90
6824;DHT22;58633;49.470;11.004;2024-02-15T06:25:44;11.00;99.90
6824;DHT22;58633;49.470;11.004;2024-02-15T06:28:10;10.30;99.90
6824;DHT22;58633;49.470;11.004;2024-02-15T06:30:45;10.30;99.90
6824;DHT22;58633;49.470;11.004;2024-02-15T06:33:37;10.50;99.90
6824;DHT22;58633;49.470;11.004;2024-02-15T06:36:21;10.60;99.90
6824;DHT22;58633;49.470;11.004;2024-02-15T06:39:09;10.30;99.90
6824;DHT22;58633;49.470;11.004;2024-02-15T06:41:53;10.30;99.90
6824;DHT22;58633;49.470;11.004;2024-02-15T06:44:19;10.10;99.90
6824;DHT22;58633;49.470;11.004;2024-02-15T06:46:44;10.40;99.90
6824;DHT22;58633;49.470;11.004;2024-02-15T06:49:11;10.30;99.90
6824;DHT22;58633;49.470;11.004;2024-02-15T06:51:37;10.40;99.90
6824;DHT22;58633;49.470;11.004;2024-02-15T06:54:02;10.30;99.90
6824;DHT22;58633;49.470;11.004;2024-02-15T06:58:55;10.40;99.90
6824;DHT22;58633;49.470;11.004;2024-02-15T07:03:47;10.40;99.90
6824;DHT22;58633;49.470;11.004;2024-02-15T07:06:13;10.10;99.90
6824;DHT22;58633;49.470;11.004;2024-02-15T07:08:40;10.30;99.90
6824;DHT22;58633;49.470;11.004;2024-02-15T07:11:09;10.40;99.90
6824;DHT22;58633;49.470;11.004;2024-02-15T07:13:35;10.50;99.90
6824;DHT22;58633;49.470;11.004;2024-02-15T07:16:09;10.60;99.90
6824;DHT22;58633;49.470;11.004;2024-02-15T07:18:35;10.50;99.90
6824;DHT22;58633;49.470;11.004;2024-02-15T07:21:01;10.60;99.90
6824;DHT22;58633;49.470;11.004;2024-02-15T07:23:29;10.40;99.90
6824;DHT22;58633;49.470;11.004;2024-02-15T07:25:55;10.40;99.90
6824;DHT22;58633;49.470;11.004;2024-02-15T07:28:21;10.50;99.90
6824;DHT22;58633;49.470;11.004;2024-02-15T07:30:47;10.50;99.90
6824;DHT22;58633;49.470;11.004;2024-02-15T07:33:16;10.60;99.90
6824;DHT22;58633;49.470;11.004;2024-02-15T07:35:46;10.40;99.90
6824;DHT22;58633;49.470;11.004;2024-02-15T07:38:12;10.50;99.90
6824;DHT22;58633;49.470;11.004;2024-02-15T07:40:37;10.50;99.90
6824;DHT22;58633;49.470;11.004;2024-02-15T07:43:05;10.60;99.90
6824;DHT22;58633;49.470;11.004;2024-02-15T07:45:31;10.60;99.90
6824;DHT22;58633;49.470;11.004;2024-02-15T07:48:00;10.60;99.90
6824;DHT22;58633;49.470;11.004;2024-02-15T07:50:26;10.80;99.90
6824;DHT22;58633;49.470;11.004;2024-02-15T07:52:52;10.70;99.90
6824;DHT22;58633;49.470;11.004;2024-02-15T07:55:18;10.60;99.90
6824;DHT22;58633;49.470;11.004;2024-02-15T07:57:44;10.60;99.90
6824;DHT22;58633;49.470;11.004;2024-02-15T08:00:13;10.70;99.90
6824;DHT22;58633;49.470;11.004;2024-02-15T08:02:42;10.90;99.90
6824;DHT22;58633;49.470;11.004;2024-02-15T08:05:09;11.10;99.90
6824;DHT22;58633;49.470;11.004;2024-02-15T08:07:37;11.10;99.90
6824;DHT22;58633;49.470;11.004;2024-02-15T08:10:05;11.20;99.90
6824;DHT22;58633;49.470;11.004;2024-02-15T08:12:33;11.10;99.90
6824;DHT22;58633;49.470;11.004;2024-02-15T08:14:58;11.30;99.90
6824;DHT22;58633;49.470;11.004;2024-02-15T08:17:24;11.20;99.90
6824;DHT22;58633;49.470;11.004;2024-02-15T08:19:51;11.30;99.90
6824;DHT22;58633;49.470;11.004;2024-02-15T08:22:17;11.40;99.90
6824;DHT22;58633;49.470;11.004;2024-02-15T08:24:42;11.30;99.90
6824;DHT22;58633;49.470;11.004;2024-02-15T08:27:09;11.30;99.90
6824;DHT22;58633;49.470;11.004;2024-02-15T08:29:35;11.30;99.90
6824;DHT22;58633;49.470;11.004;2024-02-15T08:32:01;11.40;99.90
6824;DHT22;58633;49.470;11.004;2024-02-15T08:34:26;11.30;99.90
6824;DHT22;58633;49.470;11.004;2024-02-15T08:36:53;11.40;99.90
6824;DHT22;58633;49.470;11.004;2024-02-15T08:39:19;12.20;99.90
6824;DHT22;58633;49.470;11.004;2024-02-15T08:44:11;11.60;99.90
6824;DHT22;58633;49.470;11.004;2024-02-15T08:46:40;11.60;99.90
6824;DHT22;58633;49.470;11.004;2024-02-15T08:49:06;11.70;99.20
6824;DHT22;58633;49.470;11.004;2024-02-15T08:51:31;11.70;97.80
6824;DHT22;58633;49.470;11.004;2024-02-15T08:53:58;11.90;98.10
6824;DHT22;58633;49.470;11.004;2024-02-15T08:56:25;11.70;98.50
6824;DHT22;58633;49.470;11.004;2024-02-15T08:58:50;11.70;97.50
6824;DHT22;58633;49.470;11.004;2024-02-15T09:01:16;11.70;97.30
6824;DHT22;58633;49.470;11.004;2024-02-15T09:03:41;11.70;97.20
6824;DHT22;58633;49.470;11.004;2024-02-15T09:06:10;11.70;96.60
6824;DHT22;58633;49.470;11.004;2024-02-15T09:08:36;11.70;96.70
6824;DHT22;58633;49.470;11.004;2024-02-15T09:11:01;11.40;97.10
6824;DHT22;58633;49.470;11.004;2024-02-15T09:13:27;11.70;97.20
6824;DHT22;58633;49.470;11.004;2024-02-15T09:15:53;11.80;96.70
6824;DHT22;58633;49.470;11.004;2024-02-15T09:18:18;11.80;96.30
6824;DHT22;58633;49.470;11.004;2024-02-15T09:20:46;12.30;96.80
6824;DHT22;58633;49.470;11.004;2024-02-15T09:23:14;12.00;96.40
6824;DHT22;58633;49.470;11.004;2024-02-15T09:25:40;12.10;95.50
6824;DHT22;58633;49.470;11.004;2024-02-15T09:28:06;12.00;94.50
6824;DHT22;58633;49.470;11.004;2024-02-15T09:30:31;12.30;93.90
6824;DHT22;58633;49.470;11.004;2024-02-15T09:32:58;12.20;93.90
6824;DHT22;58633;49.470;11.004;2024-02-15T09:35:24;12.10;93.10
6824;DHT22;58633;49.470;11.004;2024-02-15T09:37:49;12.20;93.20
6824;DHT22;58633;49.470;11.004;2024-02-15T09:40:16;12.40;92.70
6824;DHT22;58633;49.470;11.004;2024-02-15T09:42:43;12.30;92.20
6824;DHT22;58633;49.470;11.004;2024-02-15T09:45:13;12.30;92.10
6824;DHT22;58633;49.470;11.004;2024-02-15T09:47:40;12.40;91.90
6824;DHT22;58633;49.470;11.004;2024-02-15T09:50:14;12.40;91.40
6824;DHT22;58633;49.470;11.004;2024-02-15T09:52:43;12.30;90.40
6824;DHT22;58633;49.470;11.004;2024-02-15T09:55:09;12.30;90.40
6824;DHT22;58633;49.470;11.004;2024-02-15T09:57:38;12.40;90.40
6824;DHT22;58633;49.470;11.004;2024-02-15T10:00:05;12.50;90.40
6824;DHT22;58633;49.470;11.004;2024-02-15T10:02:34;12.40;89.60
6824;DHT22;58633;49.470;11.004;2024-02-15T10:05:01;12.60;89.70
6824;DHT22;58633;49.470;11.004;2024-02-15T10:07:27;12.60;89.10
6824;DHT22;58633;49.470;11.004;2024-02-15T10:09:54;12.60;88.80
6824;DHT22;58633;49.470;11.004;2024-02-15T10:12:19;12.70;88.60
6824;DHT22;58633;49.470;11.004;2024-02-15T10:14:48;12.80;88.90
6824;DHT22;58633;49.470;11.004;2024-02-15T10:17:20;12.80;87.80
6824;DHT22;58633;49.470;11.004;2024-02-15T10:20:03;13.00;86.40
6824;DHT22;58633;49.470;11.004;2024-02-15T10:22:29;14.50;88.30
6824;DHT22;58633;49.470;11.004;2024-02-15T10:25:11;13.00;86.30
6824;DHT22;58633;49.470;11.004;2024-02-15T10:27:38;13.20;85.70
6824;DHT22;58633;49.470;11.004;2024-02-15T10:30:22;13.50;84.80
6824;DHT22;58633;49.470;11.004;2024-02-15T10:32:48;13.50;85.00
6824;DHT22;58633;49.470;11.004;2024-02-15T10:35:21;13.50;84.10
6824;DHT22;58633;49.470;11.004;2024-02-15T10:37:50;13.60;82.90
6824;DHT22;58633;49.470;11.004;2024-02-15T10:40:22;13.60;82.20
6824;DHT22;58633;49.470;11.004;2024-02-15T10:42:51;13.60;81.60
6824;DHT22;58633;49.470;11.004;2024-02-15T10:45:17;13.80;81.10
6824;DHT22;58633;49.470;11.004;2024-02-15T10:47:45;13.90;80.80
6824;DHT22;58633;49.470;11.004;2024-02-15T10:50:13;14.10;79.50
6824;DHT22;58633;49.470;11.004;2024-02-15T10:52:48;14.30;80.10
6824;DHT22;58633;49.470;11.004;2024-02-15T10:57:51;14.70;78.30
6824;DHT22;58633;49.470;11.004;2024-02-15T11:00:19;15.00;78.10
6824;DHT22;58633;49.470;11.004;2024-02-15T11:03:07;15.60;77.40
6824;DHT22;58633;49.470;11.004;2024-02-15T11:05:37;15.40;76.00
6824;DHT22;58633;49.470;11.004;2024-02-15T11:08:05;15.60;75.50
6824;DHT22;58633;49.470;11.004;2024-02-15T11:10:32;15.60;74.80
6824;DHT22;58633;49.470;11.004;2024-02-15T11:12:59;15.80;73.90
6824;DHT22;58633;49.470;11.004;2024-02-15T11:15:42;15.90;73.30
6824;DHT22;58633;49.470;11.004;2024-02-15T11:18:11;18.50;75.20
6824;DHT22;58633;49.470;11.004;2024-02-15T11:23:04;16.80;72.80
6824;DHT22;58633;49.470;11.004;2024-02-15T11:25:35;17.20;71.00
6824;DHT22;58633;49.470;11.004;2024-02-15T11:28:35;17.30;70.20
6824;DHT22;58633;49.470;11.004;2024-02-15T11:31:02;17.70;69.80
6824;DHT22;58633;49.470;11.004;2024-02-15T11:33:32;17.60;68.60
6824;DHT22;58633;49.470;11.004;2024-02-15T11:36:11;17.60;67.70
6824;DHT22;58633;49.470;11.004;2024-02-15T11:38:38;17.40;67.30
6824;DHT22;58633;49.470;11.004;2024-02-15T11:41:08;17.50;67.20
6824;DHT22;58633;49.470;11.004;2024-02-15T11:46:24;17.70;66.30
6824;DHT22;58633;49.470;11.004;2024-02-15T11:48:51;18.10;66.40
6824;DHT22;58633;49.470;11.004;2024-02-15T11:51:31;18.20;65.80
6824;DHT22;58633;49.470;11.004;2024-02-15T11:54:09;18.20;64.60
6824;DHT22;58633;49.470;11.004;2024-02-15T11:56:56;18.90;65.20
6824;DHT22;58633;49.470;11.004;2024-02-15T11:59:51;18.30;64.00
6824;DHT22;58633;49.470;11.004;2024-02-15T12:02:39;18.60;64.50
6824;DHT22;58633;49.470;11.004;2024-02-15T12:05:23;21.40;66.50
6824;DHT22;58633;49.470;11.004;2024-02-15T12:08:10;18.90;63.10
6824;DHT22;58633;49.470;11.004;2024-02-15T12:10:58;18.90;61.80
6824;DHT22;58633;49.470;11.004;2024-02-15T12:13:43;19.00;62.40
6824;DHT22;58633;49.470;11.004;2024-02-15T12:16:27;19.20;61.90
6824;DHT22;58633;49.470;11.004;2024-02-15T12:19:11;19.10;61.80
6824;DHT22;58633;49.470;11.004;2024-02-15T12:21:38;19.30;60.70
6824;DHT22;58633;49.470;11.004;2024-02-15T12:24:07;20.80;61.90
6824;DHT22;58633;49.470;11.004;2024-02-15T12:26:32;19.90;60.40
6824;DHT22;58633;49.470;11.004;2024-02-15T12:29:00;20.00;59.30
6824;DHT22;58633;49.470;11.004;2024-02-15T12:31:27;20.50;59.00
6824;DHT22;58633;49.470;11.004;2024-02-15T12:34:03;19.80;58.60
6824;DHT22;58633;49.470;11.004;2024-02-15T12:36:35;20.90;59.10
6824;DHT22;58633;49.470;11.004;2024-02-15T12:39:06;19.70;57.40
6824;DHT22;58633;49.470;11.004;2024-02-15T12:41:40;20.10;58.40
6824;DHT22;58633;49.470;11.004;2024-02-15T12:44:07;19.90;57.00
6824;DHT22;58633;49.470;11.004;2024-02-15T12:46:34;19.80;56.50
6824;DHT22;58633;49.470;11.004;2024-02-15T12:51:41;20.20;56.10
6824;DHT22;58633;49.470;11.004;2024-02-15T12:54:19;20.20;56.10
6824;DHT22;58633;49.470;11.004;2024-02-15T12:56:46;20.20;55.00
6824;DHT22;58633;49.470;11.004;2024-02-15T12:59:14;20.60;55.40
6824;DHT22;58633;49.470;11.004;2024-02-15T13:01:40;22.50;56.60
6824;DHT22;58633;49.470;11.004;2024-02-15T13:04:06;22.20;55.60
6824;DHT22;58633;49.470;11.004;2024-02-15T13:06:32;20.70;54.30
6824;DHT22;58633;49.470;11.004;2024-02-15T13:09:01;20.60;53.60
6824;DHT22;58633;49.470;11.004;2024-02-15T13:11:29;20.70;53.90
6824;DHT22;58633;49.470;11.004;2024-02-15T13:13:54;20.80;53.90
6824;DHT22;58633;49.470;11.004;2024-02-15T13:16:20;21.00;54.10
6824;DHT22;58633;49.470;11.004;2024-02-15T13:18:48;21.10;53.50
6824;DHT22;58633;49.470;11.004;2024-02-15T13:21:14;20.90;53.10
6824;DHT22;58633;49.470;11.004;2024-02-15T13:23:39;20.80;53.30
6824;DHT22;58633;49.470;11.004;2024-02-15T13:26:05;20.70;53.10
6824;DHT22;58633;49.470;11.004;2024-02-15T13:28:33;20.50;52.70
6824;DHT22;58633;49.470;11.004;2024-02-15T13:30:59;20.40;53.10
6824;DHT22;58633;49.470;11.004;2024-02-15T13:33:24;20.60;53.40
6824;DHT22;58633;49.470;11.004;2024-02-15T13:35:51;20.40;53.10
6824;DHT22;58633;49.470;11.004;2024-02-15T13:38:17;20.40;53.70
6824;DHT22;58633;49.470;11.004;2024-02-15T13:40:48;20.20;52.90
6824;DHT22;58633;49.470;11.004;2024-02-15T13:43:17;20.30;53.00
6824;DHT22;58633;49.470;11.004;2024-02-15T13:45:44;20.00;52.90
6824;DHT22;58633;49.470;11.004;2024-02-15T13:48:10;19.80;52.70
6824;DHT22;58633;49.470;11.004;2024-02-15T13:50:38;19.70;52.70
6824;DHT22;58633;49.470;11.004;2024-02-15T13:53:05;21.30;54.40
6824;DHT22;58633;49.470;11.004;2024-02-15T13:55:30;19.40;52.90
6824;DHT22;58633;49.470;11.004;2024-02-15T13:57:57;19.60;53.80
6824;DHT22;58633;49.470;11.004;2024-02-15T14:00:24;19.60;53.80
6824;DHT22;58633;49.470;11.004;2024-02-15T14:02:59;19.70;54.00
6824;DHT22;58633;49.470;11.004;2024-02-15T14:05:27;19.70;53.40
6824;DHT22;58633;49.470;11.004;2024-02-15T14:08:04;21.30;54.50
6824;DHT22;58633;49.470;11.004;2024-02-15T14:10:36;20.00;53.00
6824;DHT22;58633;49.470;11.004;2024-02-15T14:13:03;20.20;52.90
6824;DHT22;58633;49.470;11.004;2024-02-15T14:15:31;20.20;52.70
6824;DHT22;58633;49.470;11.004;2024-02-15T14:17:59;20.30;53.00
6824;DHT22;58633;49.470;11.004;2024-02-15T14:20:26;20.20;53.00
6824;DHT22;58633;49.470;11.004;2024-02-15T14:22:53;20.40;52.90
6824;DHT22;58633;49.470;11.004;2024-02-15T14:25:22;20.30;52.90
6824;DHT22;58633;49.470;11.004;2024-02-15T14:27:48;20.40;53.00
6824;DHT22;58633;49.470;11.004;2024-02-15T14:30:14;20.30;52.70
6824;DHT22;58633;49.470;11.004;2024-02-15T14:32:58;20.20;52.50
6824;DHT22;58633;49.470;11.004;2024-02-15T14:35:36;19.80;52.30
6824;DHT22;58633;49.470;11.004;2024-02-15T14:38:05;19.70;52.80
6824;DHT22;58633;49.470;11.004;2024-02-15T14:40:51;19.70;53.40
6824;DHT22;58633;49.470;11.004;2024-02-15T14:43:19;19.80;52.50
6824;DHT22;58633;49.470;11.004;2024-02-15T14:45:46;19.70;52.20
6824;DHT22;58633;49.470;11.004;2024-02-15T14:48:13;20.00;52.80
6824;DHT22;58633;49.470;11.004;2024-02-15T14:50:39;20.00;52.80
6824;DHT22;58633;49.470;11.004;2024-02-15T14:53:05;20.00;52.50
6824;DHT22;58633;49.470;11.004;2024-02-15T14:55:33;20.00;52.30
6824;DHT22;58633;49.470;11.004;2024-02-15T14:57:59;20.20;52.80
6824;DHT22;58633;49.470;11.004;2024-02-15T15:00:25;20.50;52.40
6824;DHT22;58633;49.470;11.004;2024-02-15T15:02:52;21.30;52.70
6824;DHT22;58633;49.470;11.004;2024-02-15T15:05:18;20.40;51.40
6824;DHT22;58633;49.470;11.004;2024-02-15T15:08:03;20.50;51.40
6824;DHT22;58633;49.470;11.004;2024-02-15T15:10:47;20.50;51.20
6824;DHT22;58633;49.470;11.004;2024-02-15T15:13:33;20.50;51.00
6824;DHT22;58633;49.470;11.004;2024-02-15T15:15:59;20.30;50.70
6824;DHT22;58633;49.470;11.004;2024-02-15T15:18:25;20.20;50.90
6824;DHT22;58633;49.470;11.004;2024-02-15T15:20:50;20.00;51.10
6824;DHT22;58633;49.470;11.004;2024-02-15T15:23:16;19.90;51.10
6824;DHT22;58633;49.470;11.004;2024-02-15T15:25:42;19.60;50.90
6824;DHT22;58633;49.470;11.004;2024-02-15T15:28:08;19.50;51.10
6824;DHT22;58633;49.470;11.004;2024-02-15T15:30:33;19.40;51.40
6824;DHT22;58633;49.470;11.004;2024-02-15T15:33:00;19.10;51.10
6824;DHT22;58633;49.470;11.004;2024-02-15T15:35:29;19.10;52.40
6824;DHT22;58633;49.470;11.004;2024-02-15T15:37:56;18.70;51.60
6824;DHT22;58633;49.470;11.004;2024-02-15T15:40:23;18.70;51.70
6824;DHT22;58633;49.470;11.004;2024-02-15T15:42:48;18.70;51.80
6824;DHT22;58633;49.470;11.004;2024-02-15T15:45:14;18.60;51.80
6824;DHT22;58633;49.470;11.004;2024-02-15T15:47:41;18.50;51.90
6824;DHT22;58633;49.470;11.004;2024-02-15T15:50:07;18.50;52.00
6824;DHT22;58633;49.470;11.004;2024-02-15T15:52:33;18.40;52.10
6824;DHT22;58633;49.470;11.004;2024-02-15T15:55:00;18.40;52.30
6824;DHT22;58633;49.470;11.004;2024-02-15T15:57:26;19.80;54.00
6824;DHT22;58633;49.470;11.004;2024-02-15T15:59:51;18.00;52.60
6824;DHT22;58633;49.470;11.004;2024-02-15T16:02:17;18.20;53.20